First Coast — WCR9075 — position and weather

sailwx.info

Track history (hours):
 
Tides and Currents Weather Stations Pressure Air Temp Water Temp Dewpoint Dewpoint Depression Visibility Wind Speed Wind Dir Waves Ship Positions

First Coast

More information available from US FCC via Universal Licensing System and Coast Guard Vessel Documentation Center.

Last reported at 2014-Aug-01 23:30 UTC. Time now 2014-Aug-02 08:41 UTC.
Position N 39°13' W 074°28'.

; draft 3.5 m.

Type: Tug. MMSI: 367024280.

Date/timePositionNaut miles runAvg speedWind from/ knotsBaromVisibWave heightAir tempDewpointWater temp
2014-Aug-01 23:30N 39°13' W 074°28'1010.5
2014-Aug-01 22:33N 39°20' W 074°19'1510.2
2014-Aug-01 21:03N 39°34' W 074°10'510.2
2014-Aug-01 20:33N 39°39' W 074°07'7 7.3
2014-Aug-01 19:33N 39°46' W 074°05'6 6.1
2014-Aug-01 18:33N 39°40' W 074°07'1010.0
2014-Aug-01 17:33N 39°30' W 074°11'103 6.0
2014-Aug-01 00:33N 39°07' W 076°20'1010.0
2014-Jul-31 23:33N 38°57' W 076°24'6 4.3
2014-Jul-31 22:09N 38°52' W 076°29'6 7.1
2014-Jul-31 21:15N 38°57' W 076°24'5 6.9
2014-Jul-31 20:33N 39°02' W 076°22'7 6.8
2014-Jul-31 19:33N 39°09' W 076°20'8 0.5
2014-Jul-31 02:05N 39°15' W 076°14'10 5.9
2014-Jul-31 00:28N 39°10' W 076°25'6 6.9
2014-Jul-30 23:33N 39°13' W 076°32'2 2.1
2014-Jul-30 22:33N 39°13' W 076°35'0 0.0
2014-Jul-30 21:33N 39°13' W 076°35'0 0.0
2014-Jul-30 20:33N 39°13' W 076°35'0 0.0
2014-Jul-30 19:32N 39°13' W 076°35'0 0.0
2014-Jul-30 18:33N 39°13' W 076°35'0 0.0
2014-Jul-30 17:32N 39°13' W 076°35'0 0.0
2014-Jul-30 16:28N 39°13' W 076°35'0 0.0
2014-Jul-30 15:33N 39°13' W 076°35'0 0.0
2014-Jul-30 14:32N 39°13' W 076°35'0 0.0
2014-Jul-30 13:33N 39°13' W 076°35'0 0.1
2014-Jul-30 12:28N 39°13' W 076°35'0 0.0
2014-Jul-30 11:33N 39°13' W 076°35'1 0.6
2014-Jul-30 10:33N 39°13' W 076°34'5 4.7
2014-Jul-30 09:33N 39°11' W 076°28'7 6.4
2014-Jul-30 08:32N 39°09' W 076°21'6 6.0
2014-Jul-30 07:33N 39°13' W 076°15'7 6.8
2014-Jul-30 06:33N 39°19' W 076°12'19 0.4
2014-Jul-28 07:17N 39°02' W 076°22'121 9.5
2014-Jul-27 18:32N 37°01' W 076°13'8 1.8
2014-Jul-27 14:08N 36°58' W 076°22'2 3.3
2014-Jul-27 13:33N 36°59' W 076°20'5 5.3
2014-Jul-27 12:32N 37°00' W 076°14'7 6.5
2014-Jul-27 11:25N 36°58' W 076°05'6 5.5
2014-Jul-27 10:17N 36°57' W 075°57'3 3.5
2014-Jul-27 09:32N 36°58' W 075°54'7 6.1
2014-Jul-27 08:24N 37°02' W 075°47'148 6.7
2014-Jul-26 10:29N 39°15' W 074°26'15 7.0
2014-Jul-26 08:22N 39°27' W 074°15'13 6.9
2014-Jul-26 06:33N 39°38' W 074°06'7 6.8
2014-Jul-26 05:33N 39°44' W 074°02'7 7.1
2014-Jul-26 04:33N 39°51' W 074°01'7 7.1
2014-Jul-26 03:33N 39°58' W 073°60'8 7.5
2014-Jul-26 02:33N 40°06' W 073°58'7 7.3
2014-Jul-26 01:33N 40°13' W 073°56'8 7.0
2014-Jul-26 00:24N 40°21' W 073°55'7 7.0
2014-Jul-25 23:21N 40°28' W 073°55'5 5.8
2014-Jul-25 22:32N 40°31' W 073°60'5 5.5
2014-Jul-25 21:33N 40°36' W 074°02'4 4.4
2014-Jul-25 20:33N 40°40' W 074°04'1 0.6
2014-Jul-25 19:33N 40°41' W 074°04'0 0.0
2014-Jul-25 18:33N 40°41' W 074°04'0 0.0
2014-Jul-25 17:33N 40°41' W 074°04'0 0.0
2014-Jul-25 16:33N 40°41' W 074°04'0 0.0
2014-Jul-25 15:33N 40°41' W 074°04'0 0.0
2014-Jul-25 14:33N 40°41' W 074°04'0 0.0
2014-Jul-25 13:33N 40°41' W 074°04'0 0.1
2014-Jul-25 12:33N 40°41' W 074°04'0 0.0
2014-Jul-25 11:33N 40°41' W 074°04'0 0.1
2014-Jul-25 10:33N 40°41' W 074°04'2 2.1
2014-Jul-25 09:33N 40°39' W 074°06'2 1.0
2014-Jul-25 07:30N 40°39' W 074°09'4 0.3
2014-Jul-24 19:33N 40°40' W 074°04'3 2.6
2014-Jul-24 18:32N 40°39' W 074°07'0 0.1
2014-Jul-24 10:27N 40°39' W 074°07'3 3.8
2014-Jul-24 09:33N 40°38' W 074°03'1210.2
2014-Jul-24 08:23N 40°28' W 073°54'4010.4
2014-Jul-24 04:33N 39°49' W 074°01'1110.7
2014-Jul-24 03:33N 39°38' W 074°06'2310.9
2014-Jul-24 01:29N 39°20' W 074°22'1010.9
2014-Jul-24 00:33N 39°12' W 074°30'1110.8
2014-Jul-23 23:33N 39°03' W 074°39'1110.7
2014-Jul-23 22:33N 38°54' W 074°46'10 9.8
2014-Jul-23 21:33N 38°48' W 074°56'  
Track history (hours):
 
Tides and Currents Weather Stations Pressure Air Temp Water Temp Dewpoint Dewpoint Depression Visibility Wind Speed Wind Dir Waves Ship Positions

First Coast

More information available from US FCC via Universal Licensing System and Coast Guard Vessel Documentation Center.

Last reported at 2014-Aug-01 23:30 UTC. Time now 2014-Aug-02 08:41 UTC.
Position N 39°13' W 074°28'.

; draft 3.5 m.

Type: Tug. MMSI: 367024280.

Date/timePositionNaut miles runAvg speedWind from/ knotsBaromVisibWave heightAir tempDewpointWater temp
2014-Aug-01 23:30N 39°13' W 074°28'1010.5
2014-Aug-01 22:33N 39°20' W 074°19'1510.2
2014-Aug-01 21:03N 39°34' W 074°10'510.2
2014-Aug-01 20:33N 39°39' W 074°07'7 7.3
2014-Aug-01 19:33N 39°46' W 074°05'6 6.1
2014-Aug-01 18:33N 39°40' W 074°07'1010.0
2014-Aug-01 17:33N 39°30' W 074°11'103 6.0
2014-Aug-01 00:33N 39°07' W 076°20'1010.0
2014-Jul-31 23:33N 38°57' W 076°24'6 4.3
2014-Jul-31 22:09N 38°52' W 076°29'6 7.1
2014-Jul-31 21:15N 38°57' W 076°24'5 6.9
2014-Jul-31 20:33N 39°02' W 076°22'7 6.8
2014-Jul-31 19:33N 39°09' W 076°20'8 0.5
2014-Jul-31 02:05N 39°15' W 076°14'10 5.9
2014-Jul-31 00:28N 39°10' W 076°25'6 6.9
2014-Jul-30 23:33N 39°13' W 076°32'2 2.1
2014-Jul-30 22:33N 39°13' W 076°35'0 0.0
2014-Jul-30 21:33N 39°13' W 076°35'0 0.0
2014-Jul-30 20:33N 39°13' W 076°35'0 0.0
2014-Jul-30 19:32N 39°13' W 076°35'0 0.0
2014-Jul-30 18:33N 39°13' W 076°35'0 0.0
2014-Jul-30 17:32N 39°13' W 076°35'0 0.0
2014-Jul-30 16:28N 39°13' W 076°35'0 0.0
2014-Jul-30 15:33N 39°13' W 076°35'0 0.0
2014-Jul-30 14:32N 39°13' W 076°35'0 0.0
2014-Jul-30 13:33N 39°13' W 076°35'0 0.1
2014-Jul-30 12:28N 39°13' W 076°35'0 0.0
2014-Jul-30 11:33N 39°13' W 076°35'1 0.6
2014-Jul-30 10:33N 39°13' W 076°34'5 4.7
2014-Jul-30 09:33N 39°11' W 076°28'7 6.4
2014-Jul-30 08:32N 39°09' W 076°21'6 6.0
2014-Jul-30 07:33N 39°13' W 076°15'7 6.8
2014-Jul-30 06:33N 39°19' W 076°12'19 0.4
2014-Jul-28 07:17N 39°02' W 076°22'121 9.5
2014-Jul-27 18:32N 37°01' W 076°13'8 1.8
2014-Jul-27 14:08N 36°58' W 076°22'2 3.3
2014-Jul-27 13:33N 36°59' W 076°20'5 5.3
2014-Jul-27 12:32N 37°00' W 076°14'7 6.5
2014-Jul-27 11:25N 36°58' W 076°05'6 5.5
2014-Jul-27 10:17N 36°57' W 075°57'3 3.5
2014-Jul-27 09:32N 36°58' W 075°54'7 6.1
2014-Jul-27 08:24N 37°02' W 075°47'148 6.7
2014-Jul-26 10:29N 39°15' W 074°26'15 7.0
2014-Jul-26 08:22N 39°27' W 074°15'13 6.9
2014-Jul-26 06:33N 39°38' W 074°06'7 6.8
2014-Jul-26 05:33N 39°44' W 074°02'7 7.1
2014-Jul-26 04:33N 39°51' W 074°01'7 7.1
2014-Jul-26 03:33N 39°58' W 073°60'8 7.5
2014-Jul-26 02:33N 40°06' W 073°58'7 7.3
2014-Jul-26 01:33N 40°13' W 073°56'8 7.0
2014-Jul-26 00:24N 40°21' W 073°55'7 7.0
2014-Jul-25 23:21N 40°28' W 073°55'5 5.8
2014-Jul-25 22:32N 40°31' W 073°60'5 5.5
2014-Jul-25 21:33N 40°36' W 074°02'4 4.4
2014-Jul-25 20:33N 40°40' W 074°04'1 0.6
2014-Jul-25 19:33N 40°41' W 074°04'0 0.0
2014-Jul-25 18:33N 40°41' W 074°04'0 0.0
2014-Jul-25 17:33N 40°41' W 074°04'0 0.0
2014-Jul-25 16:33N 40°41' W 074°04'0 0.0
2014-Jul-25 15:33N 40°41' W 074°04'0 0.0
2014-Jul-25 14:33N 40°41' W 074°04'0 0.0
2014-Jul-25 13:33N 40°41' W 074°04'0 0.1
2014-Jul-25 12:33N 40°41' W 074°04'0 0.0
2014-Jul-25 11:33N 40°41' W 074°04'0 0.1
2014-Jul-25 10:33N 40°41' W 074°04'2 2.1
2014-Jul-25 09:33N 40°39' W 074°06'2 1.0
2014-Jul-25 07:30N 40°39' W 074°09'4 0.3
2014-Jul-24 19:33N 40°40' W 074°04'3 2.6
2014-Jul-24 18:32N 40°39' W 074°07'0 0.1
2014-Jul-24 10:27N 40°39' W 074°07'3 3.8
2014-Jul-24 09:33N 40°38' W 074°03'1210.2
2014-Jul-24 08:23N 40°28' W 073°54'4010.4
2014-Jul-24 04:33N 39°49' W 074°01'1110.7
2014-Jul-24 03:33N 39°38' W 074°06'2310.9
2014-Jul-24 01:29N 39°20' W 074°22'1010.9
2014-Jul-24 00:33N 39°12' W 074°30'1110.8
2014-Jul-23 23:33N 39°03' W 074°39'1110.7
2014-Jul-23 22:33N 38°54' W 074°46'10 9.8
2014-Jul-23 21:33N 38°48' W 074°56'  

Dump ship's entire track history